Time;durP1;ratioP1;P1;durP2;ratioP2;P2;SDS_P1;SDS_P2;PMS_P1;PMS_P2;Temp;Humidity;BMP_temperature;BMP_pressure;BME280_temperature;BME280_humidity;BME280_pressure;Samples;Min_cycle;Max_cycle;Signal;HPM_P1;HPM_P2
2022/07/01 00:00:59;;;;;;;7.32;5.85;;;;;;;29.65;41.47;101900.34;4148272;28;20552;-65
2022/07/01 00:03:04;;;;;;;5.95;5.35;;;;;;;29.65;41.79;101905.97;4147843;28;20045;-66
2022/07/01 00:05:05;;;;;;;;;;;;;;;29.62;41.75;101901.78;4148322;28;20045;-66
2022/07/01 00:07:12;;;;;;;6.80;5.63;;;;;;;29.64;41.27;101893.00;4148371;28;19918;-66
2022/07/01 00:09:19;;;;;;;6.20;5.60;;;;;;;29.68;41.35;101905.31;4147672;28;20045;-65
2022/07/01 00:11:21;;;;;;;6.85;5.97;;;;;;;29.67;41.34;101902.84;4148266;28;20096;-65
2022/07/01 00:13:22;;;;;;;7.22;5.80;;;;;;;29.65;41.41;101905.97;4148159;28;20037;-65
2022/07/01 00:15:23;;;;;;;6.07;5.47;;;;;;;29.65;41.40;101914.44;4148277;28;20038;-65
2022/07/01 00:17:28;;;;;;;7.43;6.07;;;;;;;29.56;41.50;101897.44;4148253;28;20096;-65
2022/07/01 00:19:29;;;;;;;7.60;6.25;;;;;;;29.64;41.24;101915.56;4147794;28;20092;-65
2022/07/01 00:21:31;;;;;;;6.07;5.47;;;;;;;29.64;41.08;101915.56;4148202;28;20038;-65
2022/07/01 00:23:33;;;;;;;6.38;5.60;;;;;;;29.63;40.97;101919.56;4148076;28;20490;-65
2022/07/01 00:25:34;;;;;;;6.25;5.25;;;;;;;29.62;41.23;101923.53;4147871;28;20100;-65
2022/07/01 00:27:39;;;;;;;6.13;4.95;;;;;;;29.62;41.25;101917.88;4147820;28;20046;-65
2022/07/01 00:29:41;;;;;;;6.72;6.10;;;;;;;29.61;40.86;101916.22;4146518;28;20443;-66
2022/07/01 00:31:42;;;;;;;6.90;5.30;;;;;;;29.61;41.00;101921.88;4147657;28;20100;-66
2022/07/01 00:33:46;;;;;;;5.78;5.28;;;;;;;29.60;40.94;101926.69;4148076;28;20038;-65
2022/07/01 00:35:47;;;;;;;7.07;5.40;;;;;;;29.59;40.74;101933.44;4147762;28;20073;-66
2022/07/01 00:37:49;;;;;;;5.43;4.93;;;;;;;29.59;40.47;101929.78;4147905;28;20038;-66
2022/07/01 00:39:50;;;;;;;6.38;5.15;;;;;;;29.59;40.59;101929.78;4147953;28;20108;-66
2022/07/01 00:41:51;;;;;;;5.72;5.22;;;;;;;29.59;40.33;101918.50;4151076;28;20374;-65
2022/07/01 00:43:53;;;;;;;6.82;5.20;;;;;;;29.59;40.33;101921.34;4150478;28;20473;-66
2022/07/01 00:45:55;;;;;;;7.30;5.00;;;;;;;29.58;40.61;101917.69;4150784;28;20077;-65
2022/07/01 00:47:56;;;;;;;5.70;5.20;;;;;;;29.57;40.56;101920.84;4150050;28;20073;-65
2022/07/01 00:49:58;;;;;;;7.38;4.90;;;;;;;29.51;40.60;101911.63;4145529;28;20161;-65
2022/07/01 00:51:59;;;;;;;5.68;5.15;;;;;;;29.57;40.39;101927.31;4150391;28;20042;-65
2022/07/01 00:54:01;;;;;;;6.30;5.50;;;;;;;29.58;40.75;101928.13;4150800;28;20108;-65
2022/07/01 00:56:03;;;;;;;6.75;5.30;;;;;;;29.58;40.69;101928.13;4150747;28;20493;-66
2022/07/01 00:58:04;;;;;;;6.05;5.05;;;;;;;29.56;40.16;101920.00;4150854;28;20045;-66
2022/07/01 01:00:12;;;;;;;7.50;4.72;;;;;;;29.56;40.57;101919.16;4148693;28;20092;-65
2022/07/01 01:02:13;;;;;;;7.50;5.45;;;;;;;29.56;40.63;101920.00;4150803;28;20046;-65
2022/07/01 01:04:17;;;;;;;5.38;4.88;;;;;;;29.56;40.58;101919.16;4150632;28;20045;-65
2022/07/01 01:06:19;;;;;;;5.35;4.85;;;;;;;29.55;40.43;101917.47;4150865;28;20502;-66
2022/07/01 01:08:20;;;;;;;5.43;4.93;;;;;;;29.50;40.37;101911.91;4150043;28;20034;-65
2022/07/01 01:10:26;;;;;;;6.25;4.97;;;;;;;29.56;40.47;101922.00;4150882;28;20045;-66
2022/07/01 01:12:28;;;;;;;6.25;5.03;;;;;;;29.50;40.42;101914.75;4149735;28;20088;-66
2022/07/01 01:14:46;;;;;;;6.20;5.20;;;;;;;29.54;40.70;101915.78;4150229;28;20088;-67
2022/07/01 01:16:48;;;;;;;5.65;5.15;;;;;;;29.56;40.42;101913.53;4150576;28;20046;-66
2022/07/01 01:18:52;;;;;;;7.47;5.18;;;;;;;29.56;40.55;101924.81;4150094;28;20095;-67
2022/07/01 01:20:54;;;;;;;5.50;4.93;;;;;;;29.56;40.50;101930.44;4150640;28;20042;-67
2022/07/01 01:22:55;;;;;;;6.43;5.10;;;;;;;29.56;40.85;101930.44;4150458;28;20069;-66
2022/07/01 01:24:59;;;;;;;6.85;4.53;;;;;;;29.54;40.83;101919.44;4150114;28;20042;-66
2022/07/01 01:27:05;;;;;;;5.65;4.72;;;;;;;29.55;40.57;101926.78;4150486;28;20047;-66
2022/07/01 01:29:07;;;;;;;5.30;4.80;;;;;;;29.55;40.69;101928.75;4149827;28;20042;-66
2022/07/01 01:31:08;;;;;;;6.75;5.22;;;;;;;29.56;40.48;101936.09;4150372;28;20100;-65
2022/07/01 01:33:12;;;;;;;6.68;4.97;;;;;;;29.55;40.51;101937.22;4150348;28;20096;-65
2022/07/01 01:35:13;;;;;;;6.50;5.07;;;;;;;29.55;40.59;101923.13;4150503;28;20037;-66
2022/07/01 01:37:20;;;;;;;5.25;4.70;;;;;;;29.53;40.52;101937.50;4150145;28;20033;-66
2022/07/01 01:39:25;;;;;;;5.03;4.38;;;;;;;29.55;40.48;101935.25;4150367;28;20099;-65
2022/07/01 01:41:26;;;;;;;5.55;5.05;;;;;;;29.55;40.65;101952.19;4150219;28;20123;-66
2022/07/01 01:43:28;;;;;;;5.60;4.97;;;;;;;29.54;40.70;101946.81;4150551;28;20038;-65
2022/07/01 01:45:29;;;;;;;5.82;5.28;;;;;;;29.54;40.52;101950.44;4151203;28;20038;-66
2022/07/01 01:47:31;;;;;;;6.82;4.70;;;;;;;29.54;40.78;101946.81;4150809;28;20050;-66
2022/07/01 01:49:36;;;;;;;5.72;5.13;;;;;;;29.52;40.65;101940.66;4150658;28;20042;-66
2022/07/01 01:51:37;;;;;;;4.95;4.45;;;;;;;29.53;40.55;101953.59;4150847;28;20120;-66
2022/07/01 01:53:39;;;;;;;6.50;5.80;;;;;;;29.53;40.72;101959.25;4150632;28;20033;-67
2022/07/01 01:55:40;;;;;;;5.80;5.13;;;;;;;29.54;41.07;101955.25;4151105;28;20034;-67
2022/07/01 01:57:42;;;;;;;5.85;4.97;;;;;;;29.54;41.17;101946.81;4151171;28;20104;-66
2022/07/01 01:59:43;;;;;;;5.90;5.40;;;;;;;29.54;40.97;101958.09;4149981;28;20107;-67
2022/07/01 02:01:44;;;;;;;5.35;4.78;;;;;;;29.54;41.03;101955.25;4150173;28;20532;-67
2022/07/01 02:03:48;;;;;;;5.47;4.97;;;;;;;29.55;40.95;101956.97;4146935;28;20042;-66
2022/07/01 02:05:50;;;;;;;6.07;5.35;;;;;;;29.51;41.11;101962.38;4150112;28;20436;-66
2022/07/01 02:07:51;;;;;;;5.85;5.25;;;;;;;29.53;41.03;101964.88;4149831;28;20038;-66
2022/07/01 02:09:52;;;;;;;5.38;4.88;;;;;;;29.49;41.32;101946.91;4150123;28;20096;-67
2022/07/01 02:11:54;;;;;;;5.78;5.13;;;;;;;29.51;41.46;101948.28;4149983;28;20045;-66
2022/07/01 02:13:55;;;;;;;5.75;5.25;;;;;;;29.51;41.12;101959.56;4149570;28;20088;-66
2022/07/01 02:15:56;;;;;;;5.65;4.65;;;;;;;29.53;41.10;101962.06;4149571;28;20108;-66
2022/07/01 02:17:58;;;;;;;5.28;4.72;;;;;;;29.52;41.38;101958.41;4149607;28;20394;-66
2022/07/01 02:19:59;;;;;;;5.18;4.72;;;;;;;29.53;41.25;101954.44;4148515;28;20038;-66
2022/07/01 02:22:01;;;;;;;5.03;4.60;;;;;;;29.54;41.03;101958.09;4147442;28;20080;-66
2022/07/01 02:24:02;;;;;;;5.45;4.95;;;;;;;29.51;41.37;101955.91;4149701;28;20038;-66
2022/07/01 02:26:04;;;;;;;5.15;4.75;;;;;;;29.53;41.32;101957.25;4149239;28;20092;-66
2022/07/01 02:28:05;;;;;;;6.18;5.20;;;;;;;29.54;41.43;101955.25;4149659;28;20025;-66
2022/07/01 02:30:07;;;;;;;5.53;5.03;;;;;;;29.53;41.42;101953.59;4142950;28;20042;-67
2022/07/01 02:32:09;;;;;;;6.60;5.65;;;;;;;29.54;41.43;101949.63;4149410;28;20033;-66
2022/07/01 02:34:10;;;;;;;5.60;5.00;;;;;;;29.54;41.40;101953.28;4149374;28;20474;-66
2022/07/01 02:36:11;;;;;;;7.22;5.50;;;;;;;29.54;41.67;101949.63;4150215;28;20025;-66
2022/07/01 02:38:13;;;;;;;5.65;5.13;;;;;;;29.53;41.33;101956.41;4149318;28;20394;-66
2022/07/01 02:40:14;;;;;;;5.15;4.65;;;;;;;29.48;41.50;101951.72;4148886;28;20042;-66
2022/07/01 02:42:26;;;;;;;5.60;5.10;;;;;;;29.50;41.62;101948.59;4149227;28;20042;-66
2022/07/01 02:44:27;;;;;;;6.88;5.13;;;;;;;29.54;41.61;101960.91;4149631;28;20052;-67
2022/07/01 02:46:28;;;;;;;5.10;4.70;;;;;;;29.54;41.72;101956.09;4149421;28;20045;-66
2022/07/01 02:48:30;;;;;;;5.20;4.70;;;;;;;29.54;41.43;101958.91;4149196;28;20103;-67
2022/07/01 02:50:31;;;;;;;5.57;5.03;;;;;;;29.50;41.69;101954.22;4149470;28;20030;-66
2022/07/01 02:52:37;;;;;;;5.43;4.93;;;;;;;29.42;41.97;101946.53;4149492;28;20084;-67
2022/07/01 02:54:38;;;;;;;6.18;5.35;;;;;;;29.54;41.70;101966.53;4149007;28;20041;-66
2022/07/01 02:56:40;;;;;;;5.70;5.07;;;;;;;29.53;41.85;101964.88;4148862;28;20045;-66
2022/07/01 02:58:41;;;;;;;5.55;5.05;;;;;;;29.53;41.75;101960.06;4148611;28;20042;-66
2022/07/01 03:00:43;;;;;;;6.43;4.97;;;;;;;29.50;41.84;101954.22;4148878;28;20092;-67
2022/07/01 03:02:45;;;;;;;5.35;4.85;;;;;;;29.55;41.77;101966.28;4148425;28;20108;-66
2022/07/01 03:04:47;;;;;;;5.55;5.05;;;;;;;29.52;41.79;101961.22;4148614;28;20421;-66
2022/07/01 03:06:51;;;;;;;5.65;5.15;;;;;;;29.50;41.84;101959.88;4148681;28;20042;-67
2022/07/01 03:08:57;;;;;;;5.60;4.78;;;;;;;29.42;42.11;101940.88;4147452;28;20191;-67
2022/07/01 03:10:59;;;;;;;5.53;4.97;;;;;;;29.54;42.07;101956.09;4148785;28;20038;-67
2022/07/01 03:13:01;;;;;;;5.38;4.88;;;;;;;29.50;42.13;101943.78;4148999;28;20033;-67
2022/07/01 03:15:14;;;;;;;5.60;5.10;;;;;;;29.45;41.89;101945.88;4149047;28;20045;-66
2022/07/01 03:17:16;;;;;;;5.47;4.97;;;;;;;29.54;42.11;101960.91;4148502;28;20096;-67
2022/07/01 03:19:17;;;;;;;5.53;5.03;;;;;;;29.54;41.81;101963.72;4147341;28;20087;-65
2022/07/01 03:21:19;;;;;;;5.70;5.18;;;;;;;29.54;42.14;101966.53;4148978;28;20045;-67
2022/07/01 03:23:20;;;;;;;5.10;4.65;;;;;;;29.53;42.07;101959.25;4148473;28;20037;-66
2022/07/01 03:25:25;;;;;;;5.50;5.00;;;;;;;29.54;42.05;101961.72;4148470;28;20437;-66
2022/07/01 03:27:26;;;;;;;6.70;5.28;;;;;;;29.55;42.20;101968.25;4148429;28;20555;-66
2022/07/01 03:29:28;;;;;;;6.10;5.50;;;;;;;29.54;42.16;101963.72;4148139;28;20474;-66
2022/07/01 03:31:29;;;;;;;5.75;5.25;;;;;;;29.50;42.32;101960.69;4148421;28;20029;-68
2022/07/01 03:33:31;;;;;;;5.72;5.13;;;;;;;29.54;42.43;101966.53;4148038;28;20042;-66
2022/07/01 03:35:35;;;;;;;5.13;4.68;;;;;;;29.53;42.06;101959.25;4148710;28;20414;-67
2022/07/01 03:37:36;;;;;;;5.65;5.07;;;;;;;29.54;42.41;101966.53;4148359;28;20038;-67
2022/07/01 03:39:41;;;;;;;6.13;5.53;;;;;;;29.47;42.04;101960.50;4148308;28;20042;-67
2022/07/01 03:41:42;;;;;;;6.68;5.07;;;;;;;29.53;42.36;101964.88;4148467;28;20050;-66
2022/07/01 03:43:43;;;;;;;6.38;5.72;;;;;;;29.55;42.07;101968.25;4147830;28;20095;-66
2022/07/01 03:45:45;;;;;;;4.82;4.40;;;;;;;29.55;42.47;101968.25;4148485;28;20041;-66
2022/07/01 03:47:47;;;;;;;6.20;5.28;;;;;;;29.55;42.48;101968.25;4148082;28;20049;-66
2022/07/01 03:49:48;;;;;;;5.85;5.30;;;;;;;29.55;42.31;101969.09;4148176;28;20042;-67
2022/07/01 03:51:52;;;;;;;5.20;4.78;;;;;;;29.54;42.33;101978.66;4148475;28;20450;-66
2022/07/01 03:56:16;;;;;;;5.28;4.78;;;;;;;29.54;42.38;101975.00;4149760;28;20095;-66
2022/07/01 03:58:17;;;;;;;5.90;4.80;;;;;;;29.54;42.49;101983.47;4148000;28;20108;-67
2022/07/01 04:00:18;;;;;;;5.65;5.10;;;;;;;29.54;42.36;101977.81;4148150;28;20042;-67
2022/07/01 04:02:20;;;;;;;5.75;5.15;;;;;;;29.55;42.63;101973.88;4147987;28;20042;-66
2022/07/01 04:04:26;;;;;;;5.60;5.10;;;;;;;29.53;42.61;101970.53;4147960;28;20383;-66
2022/07/01 04:06:30;;;;;;;5.50;5.00;;;;;;;29.54;42.41;101967.38;4147609;28;20092;-66
2022/07/01 04:08:35;;;;;;;5.63;5.13;;;;;;;29.54;42.61;101960.91;4147508;28;20553;-66
2022/07/01 04:10:40;;;;;;;6.85;4.68;;;;;;;29.54;42.55;101966.53;4147520;28;20108;-67
2022/07/01 04:12:42;;;;;;;5.95;4.93;;;;;;;29.54;42.71;101955.25;4147609;28;20096;-65
2022/07/01 04:14:46;;;;;;;5.32;4.82;;;;;;;29.55;42.63;101956.97;4146753;28;20029;-67
2022/07/01 04:16:47;;;;;;;5.63;5.07;;;;;;;29.54;42.89;101955.25;4147729;28;20092;-67
2022/07/01 04:18:53;;;;;;;5.38;4.88;;;;;;;29.53;42.51;101956.41;4146006;28;20469;-67
2022/07/01 04:23:14;;;;;;;6.03;4.97;;;;;;;29.56;42.61;101953.00;4147663;28;20527;-67
2022/07/01 04:25:15;;;;;;;5.25;4.72;;;;;;;29.54;42.70;101939.16;4147647;28;20350;-67
2022/07/01 04:27:17;;;;;;;5.68;5.13;;;;;;;29.55;42.95;101946.53;4147077;28;20042;-66
2022/07/01 04:29:19;;;;;;;6.20;5.60;;;;;;;29.47;43.01;101937.97;4147027;28;20104;-67
2022/07/01 04:31:21;;;;;;;6.25;5.38;;;;;;;29.55;42.75;101940.91;4147692;28;20037;-68
2022/07/01 04:33:22;;;;;;;6.55;5.13;;;;;;;29.55;42.73;101945.69;4147072;28;20034;-66
2022/07/01 04:35:24;;;;;;;6.57;5.47;;;;;;;29.47;42.80;101927.50;4147106;28;20038;-66
2022/07/01 04:37:27;;;;;;;5.45;4.95;;;;;;;29.54;42.50;101946.81;4146531;28;20096;-67
2022/07/01 04:39:29;;;;;;;6.00;5.47;;;;;;;29.56;42.50;101947.38;4145780;28;20046;-67
2022/07/01 04:43:50;;;;;;;5.78;5.22;;;;;;;29.58;42.79;101950.69;4147509;28;20104;-66
2022/07/01 04:45:51;;;;;;;5.50;5.00;;;;;;;29.56;42.88;101947.38;4147153;28;20042;-66
2022/07/01 04:47:53;;;;;;;6.82;6.10;;;;;;;29.56;42.94;101948.19;4147005;28;20042;-66
2022/07/01 04:49:54;;;;;;;5.43;4.93;;;;;;;29.56;42.94;101941.72;4145923;28;20077;-67
2022/07/01 04:51:56;;;;;;;5.88;5.38;;;;;;;29.56;43.00;101941.72;4147064;28;20486;-66
2022/07/01 04:53:58;;;;;;;5.53;4.97;;;;;;;29.56;42.92;101933.28;4147497;28;20046;-67
2022/07/01 04:56:02;;;;;;;5.90;5.30;;;;;;;29.56;43.00;101930.44;4147433;28;20034;-67
2022/07/01 04:58:03;;;;;;;5.97;5.38;;;;;;;29.57;42.78;101926.47;4146760;28;20046;-66
2022/07/01 05:00:08;;;;;;;6.03;5.22;;;;;;;29.56;42.81;101927.63;4147325;28;20544;-66
2022/07/01 05:02:11;;;;;;;5.60;5.05;;;;;;;29.56;42.90;101922.00;4148085;28;20049;-66
2022/07/01 05:04:15;;;;;;;5.60;5.10;;;;;;;29.56;42.84;101919.16;4082287;28;1903548;-67
2022/07/01 05:06:17;;;;;;;6.55;5.82;;;;;;;29.48;43.00;101914.25;4147777;28;20121;-67
2022/07/01 05:08:21;;;;;;;5.97;5.40;;;;;;;29.57;43.02;101935.75;4147406;28;20104;-67
2022/07/01 05:10:23;;;;;;;6.63;5.93;;;;;;;29.57;43.03;101932.09;4147868;28;20037;-67
2022/07/01 05:12:24;;;;;;;5.63;5.13;;;;;;;29.55;43.13;101928.75;4148268;28;20072;-66
2022/07/01 05:14:26;;;;;;;5.38;4.93;;;;;;;29.57;43.03;101937.75;4147900;28;20038;-66
2022/07/01 05:16:30;;;;;;;6.07;5.47;;;;;;;29.55;42.99;101929.63;4147847;28;20034;-66
2022/07/01 05:23:10;;;;;;;5.38;4.88;;;;;;;29.51;43.04;101919.25;4148582;28;20088;-67
2022/07/01 05:25:11;;;;;;;5.70;5.20;;;;;;;29.57;43.20;101923.66;4148002;28;20099;-66
2022/07/01 05:27:13;;;;;;;5.65;5.15;;;;;;;29.55;43.25;101918.34;4149900;28;20038;-65
2022/07/01 05:29:15;;;;;;;6.20;5.60;;;;;;;29.56;43.08;101919.16;4150003;28;20038;-66
2022/07/01 05:31:16;;;;;;;6.70;5.80;;;;;;;29.55;43.14;101918.34;4149416;28;20096;-66
2022/07/01 05:33:21;;;;;;;5.53;5.03;;;;;;;29.56;43.01;101913.53;4150668;28;20465;-65
2022/07/01 05:35:25;;;;;;;5.85;5.28;;;;;;;29.56;43.33;101907.88;4149912;28;20374;-66
2022/07/01 05:37:32;;;;;;;5.88;5.38;;;;;;;29.56;43.01;101917.19;4150226;28;20088;-67
2022/07/01 05:39:33;;;;;;;5.78;4.88;;;;;;;29.57;43.47;101916.03;4149973;28;20046;-66
2022/07/01 05:41:35;;;;;;;6.35;5.75;;;;;;;29.56;43.19;101914.34;4150584;28;20038;-66
2022/07/01 05:43:36;;;;;;;6.22;5.63;;;;;;;29.56;43.20;101916.34;4150201;28;20100;-66
2022/07/01 05:45:43;;;;;;;6.50;5.88;;;;;;;29.56;43.48;101914.34;4150463;28;20046;-66
2022/07/01 05:47:44;;;;;;;5.97;5.47;;;;;;;29.55;43.09;101911.84;4149666;28;20427;-66
2022/07/01 05:49:46;;;;;;;5.90;5.40;;;;;;;29.54;43.17;101904.50;4150040;28;20169;-66
2022/07/01 05:51:47;;;;;;;5.32;4.90;;;;;;;29.55;43.36;101907.06;4149669;28;20046;-67
2022/07/01 05:53:49;;;;;;;5.82;5.32;;;;;;;29.56;43.20;101911.53;4149882;28;20042;-67
2022/07/01 05:55:53;;;;;;;6.40;5.78;;;;;;;29.56;43.17;101911.53;4150104;28;20100;-67
2022/07/01 05:57:55;;;;;;;5.88;5.38;;;;;;;29.53;43.32;101897.19;4149844;28;20096;-67
2022/07/01 05:59:56;;;;;;;6.63;5.72;;;;;;;29.55;43.59;101909.00;4150220;28;20100;-67
2022/07/01 06:01:58;;;;;;;6.28;5.68;;;;;;;29.55;43.16;101900.56;4149693;28;20046;-67
2022/07/01 06:04:02;;;;;;;6.80;6.20;;;;;;;29.56;43.51;101902.25;4149528;28;20046;-67
2022/07/01 06:06:04;;;;;;;;;;;;;;;29.55;43.23;101901.41;4150534;28;20112;-66
2022/07/01 06:08:06;;;;;;;5.95;5.45;;;;;;;29.56;43.20;101888.16;4149520;28;20353;-65
2022/07/01 06:10:10;;;;;;;6.25;5.68;;;;;;;29.61;43.42;101899.31;4150198;28;20037;-67
2022/07/01 06:12:11;;;;;;;6.03;5.45;;;;;;;29.60;43.32;101898.47;4149968;28;20421;-65
2022/07/01 06:14:13;;;;;;;6.90;5.85;;;;;;;29.59;43.45;101896.78;4149842;28;20038;-67
2022/07/01 06:16:17;;;;;;;6.60;5.97;;;;;;;29.59;43.55;101895.94;4149661;28;20077;-67
2022/07/01 06:18:19;;;;;;;6.72;6.03;;;;;;;29.58;43.37;101899.94;4138974;28;20042;-65
2022/07/01 06:20:20;;;;;;;6.35;5.85;;;;;;;29.53;43.51;101891.56;4149643;28;20088;-67
2022/07/01 06:22:21;;;;;;;6.40;5.80;;;;;;;29.59;43.73;101898.78;4149829;28;20046;-67
2022/07/01 06:24:24;;;;;;;6.30;5.70;;;;;;;29.55;43.56;101892.09;4149666;28;20112;-65
2022/07/01 06:26:25;;;;;;;6.43;5.82;;;;;;;29.56;43.72;101894.63;4149513;28;20478;-66
2022/07/01 06:28:29;;;;;;;6.63;5.38;;;;;;;29.57;43.79;101889.81;4149172;28;20111;-67
2022/07/01 06:30:30;;;;;;;5.85;5.35;;;;;;;29.57;43.63;101887.81;4149573;28;20034;-66
2022/07/01 06:32:32;;;;;;;6.20;5.60;;;;;;;29.57;43.89;101887.81;4149331;28;20050;-66
2022/07/01 06:34:34;;;;;;;5.88;5.32;;;;;;;29.55;43.98;101869.53;4148638;28;20038;-67
2022/07/01 06:36:35;;;;;;;7.05;6.38;;;;;;;29.58;43.96;101883.00;4147853;28;20457;-68
2022/07/01 06:38:39;;;;;;;6.78;5.90;;;;;;;29.58;43.72;101880.19;4148038;28;20077;-65
2022/07/01 06:40:40;;;;;;;6.70;6.10;;;;;;;29.58;43.67;101877.38;4149253;28;20425;-66
2022/07/01 06:42:42;;;;;;;8.02;5.93;;;;;;;29.57;43.87;101879.34;4149172;28;20026;-66
2022/07/01 06:44:43;;;;;;;6.50;5.90;;;;;;;29.56;43.76;101871.22;4149468;28;20046;-66
2022/07/01 06:46:45;;;;;;;6.18;5.65;;;;;;;29.57;44.42;101864.44;4149042;28;20556;-67
2022/07/01 06:48:49;;;;;;;6.13;5.50;;;;;;;29.57;43.95;101861.59;4149087;28;20050;-67
2022/07/01 06:50:51;;;;;;;8.77;5.93;;;;;;;29.59;43.82;101862.09;4149246;28;20042;-67
2022/07/01 06:52:52;;;;;;;7.90;5.93;;;;;;;29.58;44.24;101857.63;4149553;28;20030;-65
2022/07/01 06:54:53;;;;;;;6.80;6.10;;;;;;;29.59;44.15;101856.47;4149352;28;20042;-65
2022/07/01 06:56:55;;;;;;;6.60;5.68;;;;;;;29.59;44.14;101862.09;4149322;28;20103;-67
2022/07/01 06:58:59;;;;;;;6.35;5.75;;;;;;;29.57;43.70;101856.78;4148706;28;20100;-66
2022/07/01 07:01:01;;;;;;;6.82;5.75;;;;;;;29.58;44.06;101868.91;4149012;28;20477;-66
2022/07/01 07:03:02;;;;;;;6.38;5.78;;;;;;;29.56;44.10;101862.75;4148921;28;20104;-67
2022/07/01 07:05:04;;;;;;;6.88;5.40;;;;;;;29.59;44.10;101859.28;4148955;28;20037;-66
2022/07/01 07:07:05;;;;;;;6.00;5.40;;;;;;;29.58;43.96;101860.44;4148945;28;20453;-66
2022/07/01 07:09:06;;;;;;;7.53;5.28;;;;;;;29.58;43.92;101861.28;4148712;28;20086;-66
2022/07/01 07:11:08;;;;;;;6.03;5.22;;;;;;;29.58;44.24;101854.81;4149059;28;20543;-67
2022/07/01 07:13:10;;;;;;;6.50;5.90;;;;;;;29.58;43.74;101863.25;4148771;28;20095;-66
2022/07/01 07:15:11;;;;;;;6.40;5.80;;;;;;;29.58;44.31;101843.53;4148346;28;20069;-66
2022/07/01 07:17:13;;;;;;;6.38;5.72;;;;;;;29.59;44.00;101845.19;4149084;28;20038;-66
2022/07/01 07:19:14;;;;;;;6.95;5.90;;;;;;;29.57;44.06;101842.69;4148496;28;20108;-66
2022/07/01 07:21:16;;;;;;;8.30;6.15;;;;;;;29.58;43.92;101837.88;4148866;28;20425;-67
2022/07/01 07:23:17;;;;;;;6.68;5.95;;;;;;;29.58;44.36;101843.53;4148597;28;20112;-67
2022/07/01 07:25:18;;;;;;;7.32;5.57;;;;;;;29.58;44.29;101840.69;4149063;28;20046;-66
2022/07/01 07:27:22;;;;;;;8.57;6.10;;;;;;;29.54;44.20;101834.81;4148520;28;20568;-66
2022/07/01 07:29:24;;;;;;;7.32;6.00;;;;;;;29.58;44.09;101843.53;4148502;28;20099;-67
2022/07/01 07:31:25;;;;;;;6.95;6.28;;;;;;;29.56;44.41;101834.56;4148497;28;20046;-66
2022/07/01 07:33:26;;;;;;;7.13;6.22;;;;;;;29.56;44.13;101841.03;4148570;28;20548;-67
2022/07/01 07:35:28;;;;;;;6.65;6.05;;;;;;;29.56;44.32;101834.56;4148388;28;20477;-67
2022/07/01 07:37:32;;;;;;;6.47;5.75;;;;;;;29.56;44.34;101841.03;4148395;28;20049;-67
2022/07/01 07:39:33;;;;;;;7.55;6.47;;;;;;;29.57;44.29;101839.03;4147982;28;20041;-67
2022/07/01 07:41:37;;;;;;;6.35;5.75;;;;;;;29.57;44.26;101836.22;4148320;28;20042;-66
2022/07/01 07:43:41;;;;;;;7.00;6.30;;;;;;;29.58;44.21;101832.25;4148253;28;20046;-67
2022/07/01 07:45:43;;;;;;;6.10;5.60;;;;;;;29.57;43.97;101836.22;4148393;28;20068;-67
2022/07/01 07:47:45;;;;;;;6.13;5.53;;;;;;;29.56;43.98;101838.22;4147869;28;20440;-67
2022/07/01 07:49:48;;;;;;;5.90;5.40;;;;;;;29.53;44.32;101829.50;4148050;28;20095;-67
2022/07/01 07:51:50;;;;;;;7.25;6.57;;;;;;;29.56;44.21;101828.91;4148473;28;20497;-67
2022/07/01 07:53:51;;;;;;;6.13;5.53;;;;;;;29.55;44.05;101833.72;4148257;28;20042;-67
2022/07/01 07:55:52;;;;;;;6.25;5.57;;;;;;;29.54;44.06;101831.19;4148530;28;20041;-67
2022/07/01 07:57:54;;;;;;;6.55;5.97;;;;;;;29.54;44.59;101825.53;4148392;28;20041;-67
2022/07/01 07:59:56;;;;;;;7.75;5.65;;;;;;;29.53;44.68;101826.69;4148154;28;20046;-67
2022/07/01 08:01:57;;;;;;;6.35;5.55;;;;;;;29.53;44.53;101830.34;4148364;28;20559;-68
2022/07/01 08:03:58;;;;;;;5.93;5.43;;;;;;;29.54;44.75;101832.00;4148317;28;20112;-67
2022/07/01 08:06:03;;;;;;;6.78;6.18;;;;;;;29.54;44.84;101828.34;4148136;28;20108;-67
2022/07/01 08:08:04;;;;;;;5.95;5.40;;;;;;;29.54;44.56;101831.19;4148082;28;20641;-67
2022/07/01 08:10:14;;;;;;;6.00;5.47;;;;;;;29.55;44.33;101833.72;4147938;28;20543;-67
2022/07/01 08:12:16;;;;;;;6.65;5.90;;;;;;;29.53;44.70;101830.34;4148419;28;20084;-67
2022/07/01 08:14:18;;;;;;;6.68;6.07;;;;;;;29.55;44.76;101832.88;4148026;28;20100;-67
2022/07/01 08:16:19;;;;;;;6.10;5.60;;;;;;;29.54;45.16;101832.00;4146299;28;20033;-67
2022/07/01 08:18:20;;;;;;;7.78;6.18;;;;;;;29.55;44.50;101830.06;4141027;28;20049;-67
2022/07/01 08:20:22;;;;;;;7.28;5.75;;;;;;;29.55;44.51;101835.69;4148545;28;20042;-66
2022/07/01 08:22:23;;;;;;;6.70;6.10;;;;;;;29.48;44.46;101821.19;4148209;28;20116;-67
2022/07/01 08:24:30;;;;;;;6.57;5.97;;;;;;;29.50;44.36;101813.22;4147830;28;20038;-67
2022/07/01 08:26:31;;;;;;;5.88;5.38;;;;;;;29.42;44.47;101808.38;4148258;28;20038;-67
2022/07/01 08:28:32;;;;;;;6.68;5.57;;;;;;;29.51;44.37;101821.38;4147643;28;20424;-67
2022/07/01 08:30:34;;;;;;;5.82;5.32;;;;;;;29.52;44.88;101819.41;4148298;28;20042;-67
2022/07/01 08:32:38;;;;;;;6.50;5.90;;;;;;;29.53;44.79;101821.06;4148179;28;20045;-67
2022/07/01 08:34:39;;;;;;;6.32;5.72;;;;;;;29.53;44.81;101824.72;4148136;28;20501;-67
2022/07/01 08:36:41;;;;;;;6.00;5.40;;;;;;;29.49;44.61;101812.41;4148237;28;20092;-67
2022/07/01 08:38:42;;;;;;;6.55;5.93;;;;;;;29.49;44.52;101809.56;4147567;28;20041;-67
2022/07/01 08:40:45;;;;;;;6.47;5.88;;;;;;;29.52;44.63;101810.94;4147721;28;20068;-67
2022/07/01 08:42:46;;;;;;;6.10;5.60;;;;;;;29.53;44.41;101815.41;4147325;28;20100;-67
2022/07/01 08:44:47;;;;;;;6.47;5.45;;;;;;;29.51;44.83;101809.28;4148121;28;20041;-67
2022/07/01 08:46:48;;;;;;;6.13;5.53;;;;;;;29.51;44.48;101812.09;4148105;28;20489;-67
2022/07/01 08:48:50;;;;;;;8.68;6.20;;;;;;;29.52;44.40;101811.75;4147406;28;20483;-66
2022/07/01 08:50:51;;;;;;;6.72;6.07;;;;;;;29.51;44.62;101814.91;4148195;28;20485;-66
2022/07/01 08:52:53;;;;;;;6.50;5.90;;;;;;;29.51;44.98;101817.75;4147906;28;20100;-66
2022/07/01 08:54:54;;;;;;;6.60;6.00;;;;;;;29.51;45.05;101817.75;4147710;28;20533;-66
2022/07/01 08:56:55;;;;;;;6.18;5.57;;;;;;;29.52;44.75;101813.75;4147478;28;20100;-66
2022/07/01 08:58:57;;;;;;;7.05;6.35;;;;;;;29.51;44.82;101806.47;4147646;28;20088;-66
2022/07/01 09:01:21;;;;;;;6.60;6.00;;;;;;;29.50;44.81;101799.13;4148288;28;20038;-66
2022/07/01 09:03:25;;;;;;;6.70;5.65;;;;;;;29.49;44.72;101803.09;4150980;28;20548;-66
2022/07/01 09:05:28;;;;;;;6.00;5.40;;;;;;;29.53;44.76;101806.97;4150012;28;20067;-66
2022/07/01 09:07:36;;;;;;;6.40;5.80;;;;;;;29.51;44.69;101812.94;4150782;28;20428;-66
2022/07/01 09:09:42;;;;;;;6.13;5.63;;;;;;;29.53;44.86;101809.78;4150662;28;20452;-66
2022/07/01 09:11:55;;;;;;;6.35;5.75;;;;;;;29.49;44.84;101811.56;4150685;28;20490;-67
2022/07/01 09:14:11;;;;;;;6.45;5.95;;;;;;;29.50;45.19;101807.59;4150692;28;20080;-67
2022/07/01 09:16:16;;;;;;;5.97;5.40;;;;;;;29.49;45.18;101801.13;4150383;28;20417;-68
2022/07/01 09:18:21;;;;;;;6.10;5.50;;;;;;;29.53;45.23;101795.69;4150393;28;20046;-66
2022/07/01 09:20:33;;;;;;;6.43;5.78;;;;;;;29.49;44.82;101794.66;4148936;28;20046;-67
2022/07/01 09:22:35;;;;;;;6.25;5.65;;;;;;;29.53;45.31;101792.84;4150620;28;20034;-67
2022/07/01 09:24:44;;;;;;;5.82;5.32;;;;;;;29.51;45.06;101798.00;4150803;28;20042;-67
2022/07/01 09:27:11;;;;;;;5.93;5.22;;;;;;;29.50;44.81;101796.31;4150552;28;20046;-67
2022/07/01 09:29:15;;;;;;;6.78;6.18;;;;;;;29.52;45.24;101796.84;4149914;28;20170;-67
2022/07/01 09:31:17;;;;;;;6.03;5.35;;;;;;;29.52;45.39;101794.84;4150391;28;20038;-66
2022/07/01 09:33:21;;;;;;;6.18;5.57;;;;;;;29.47;45.58;101791.31;4150246;28;20042;-67
2022/07/01 09:35:22;;;;;;;6.57;5.97;;;;;;;29.50;45.11;101796.31;4150343;28;20046;-67
2022/07/01 09:37:25;;;;;;;6.18;5.57;;;;;;;29.51;45.03;101789.53;4150398;28;20551;-67
2022/07/01 09:39:26;;;;;;;6.10;5.50;;;;;;;29.51;45.32;101783.91;4150066;28;20041;-67
2022/07/01 09:41:37;;;;;;;6.75;6.05;;;;;;;29.41;45.36;101772.84;4150448;28;20046;-67
2022/07/01 09:43:38;;;;;;;5.85;5.35;;;;;;;29.50;45.30;101777.41;4150123;28;20456;-67